createdAt,value
2022-09-03T00:00:47.143Z,18.67
2022-09-03T00:03:20.425Z,18.67
2022-09-03T00:06:19.316Z,18.55
2022-09-03T00:08:59.983Z,18.55
2022-09-03T00:11:39.129Z,18.55
2022-09-03T00:14:09.593Z,18.52
2022-09-03T00:16:50.819Z,18.50
2022-09-03T00:19:25.776Z,18.44
2022-09-03T00:22:07.224Z,18.41
2022-09-03T00:24:36.735Z,18.38
2022-09-03T00:27:11.443Z,18.30
2022-09-03T00:30:08.481Z,18.27
2022-09-03T00:32:39.458Z,18.23
2022-09-03T00:35:14.186Z,18.16
2022-09-03T00:37:42.085Z,18.14
2022-09-03T00:40:23.062Z,18.07
2022-09-03T00:43:15.716Z,18.13
2022-09-03T00:45:42.223Z,18.04
2022-09-03T00:48:28.419Z,17.96
2022-09-03T00:51:29.386Z,17.93
2022-09-03T00:54:17.656Z,17.89
2022-09-03T00:56:59.358Z,17.85
2022-09-03T00:59:42.052Z,17.79
2022-09-03T01:02:30.115Z,17.76
2022-09-03T01:05:18.570Z,17.78
2022-09-03T01:08:03.340Z,17.81
2022-09-03T01:10:44.712Z,17.76
2022-09-03T01:13:27.733Z,17.75
2022-09-03T01:16:07.646Z,17.76
2022-09-03T01:18:45.906Z,17.72
2022-09-03T01:21:43.659Z,17.71
2022-09-03T01:24:36.101Z,17.69
2022-09-03T01:27:22.441Z,17.61
2022-09-03T01:30:11.021Z,17.62
2022-09-03T01:32:51.154Z,17.59
2022-09-03T01:35:44.054Z,17.59
2022-09-03T01:38:17.334Z,17.55
2022-09-03T01:40:48.290Z,17.46
2022-09-03T01:43:15.234Z,17.42
2022-09-03T01:46:01.872Z,17.42
2022-09-03T01:48:31.441Z,17.45
2022-09-03T01:51:19.561Z,17.39
2022-09-03T01:54:18.072Z,17.42
2022-09-03T01:56:51.286Z,17.38
2022-09-03T01:59:42.415Z,17.35
2022-09-03T02:02:21.400Z,17.32
2022-09-03T02:05:08.948Z,17.36
2022-09-03T02:07:40.515Z,17.31
2022-09-03T02:10:13.540Z,17.27
2022-09-03T02:12:43.865Z,17.24
2022-09-03T02:15:14.525Z,17.24
2022-09-03T02:17:43.869Z,17.27
2022-09-03T02:20:13.834Z,17.27
2022-09-03T02:22:40.948Z,17.27
2022-09-03T02:25:08.291Z,17.27
2022-09-03T02:27:35.048Z,17.23
2022-09-03T02:30:01.641Z,17.21
2022-09-03T02:32:28.548Z,17.23
2022-09-03T02:34:55.159Z,17.25
2022-09-03T02:37:22.486Z,17.30
2022-09-03T02:39:51.894Z,17.35
2022-09-03T02:42:19.199Z,17.31
2022-09-03T02:44:50.288Z,17.28
2022-09-03T02:47:18.068Z,17.23
2022-09-03T02:49:46.804Z,17.20
2022-09-03T02:52:13.346Z,17.20
2022-09-03T02:54:40.147Z,17.23
2022-09-03T02:57:12.524Z,17.23
2022-09-03T02:59:41.180Z,17.24
2022-09-03T03:02:08.727Z,17.28
2022-09-03T03:04:35.341Z,17.23
2022-09-03T03:07:01.964Z,17.20
2022-09-03T03:09:29.052Z,17.20
2022-09-03T03:11:55.748Z,17.20
2022-09-03T03:14:22.829Z,17.20
2022-09-03T03:16:50.724Z,17.20
2022-09-03T03:19:17.759Z,17.17
2022-09-03T03:21:44.675Z,17.15
2022-09-03T03:24:11.481Z,17.13
2022-09-03T03:26:38.057Z,17.14
2022-09-03T03:29:04.903Z,17.15
2022-09-03T03:31:32.642Z,17.11
2022-09-03T03:34:01.706Z,17.17
2022-09-03T03:36:31.924Z,17.20
2022-09-03T03:38:59.877Z,17.17
2022-09-03T03:41:32.309Z,17.15
2022-09-03T03:44:01.439Z,17.18
2022-09-03T03:46:33.654Z,17.11
2022-09-03T03:49:01.111Z,17.08
2022-09-03T03:51:28.233Z,17.03
2022-09-03T03:53:56.843Z,17.00
2022-09-03T03:56:24.353Z,16.96
2022-09-03T03:58:51.653Z,16.91
2022-09-03T04:01:23.961Z,16.87
2022-09-03T04:03:50.790Z,16.86
2022-09-03T04:06:19.534Z,16.81
2022-09-03T04:08:49.621Z,16.83
2022-09-03T04:11:22.875Z,16.76
2022-09-03T04:13:50.469Z,16.72
2022-09-03T04:16:20.050Z,16.72
2022-09-03T04:18:49.506Z,16.72
2022-09-03T04:21:21.834Z,16.73
2022-09-03T04:23:52.089Z,16.67
2022-09-03T04:26:25.113Z,16.67
2022-09-03T04:28:51.815Z,16.65
2022-09-03T04:31:20.499Z,16.62
2022-09-03T04:33:47.119Z,16.66
2022-09-03T04:36:22.608Z,16.58
2022-09-03T04:38:51.179Z,16.58
2022-09-03T04:41:20.040Z,16.58
2022-09-03T04:43:51.510Z,16.56
2022-09-03T04:46:20.320Z,16.53
2022-09-03T04:48:51.937Z,16.51
2022-09-03T04:51:24.391Z,16.49
2022-09-03T04:54:00.201Z,16.49
2022-09-03T04:56:29.335Z,16.45
2022-09-03T04:58:59.010Z,16.44
2022-09-03T05:01:28.319Z,16.42
2022-09-03T05:03:58.525Z,16.45
2022-09-03T05:06:30.012Z,16.41
2022-09-03T05:08:57.513Z,16.35
2022-09-03T05:11:25.940Z,16.42
2022-09-03T05:13:55.077Z,16.38
2022-09-03T05:16:22.533Z,16.44
2022-09-03T05:18:52.839Z,16.42
2022-09-03T05:21:20.140Z,16.46
2022-09-03T05:23:48.819Z,16.45
2022-09-03T05:26:26.901Z,16.42
2022-09-03T05:29:07.752Z,16.39
2022-09-03T05:31:36.703Z,16.46
2022-09-03T05:34:05.144Z,16.49
2022-09-03T05:36:35.184Z,16.49
2022-09-03T05:39:01.963Z,16.52
2022-09-03T05:41:29.793Z,16.56
2022-09-03T05:43:59.140Z,16.60
2022-09-03T05:46:38.462Z,16.69
2022-09-03T05:49:06.753Z,16.73
2022-09-03T05:51:34.931Z,16.86
2022-09-03T05:54:02.837Z,17.03
2022-09-03T05:56:31.026Z,17.13
2022-09-03T05:59:05.619Z,17.13
2022-09-03T06:01:34.281Z,17.30
2022-09-03T06:04:05.664Z,17.44
2022-09-03T06:06:35.966Z,17.55
2022-09-03T06:09:05.741Z,17.65
2022-09-03T06:11:35.446Z,17.78
2022-09-03T06:14:08.537Z,17.93
2022-09-03T06:16:37.809Z,18.10
2022-09-03T06:19:09.682Z,18.26
2022-09-03T06:21:42.790Z,18.34
2022-09-03T06:24:15.784Z,18.51
2022-09-03T06:26:43.362Z,18.52
2022-09-03T06:29:11.264Z,18.69
2022-09-03T06:31:38.147Z,18.64
2022-09-03T06:34:04.709Z,18.85
2022-09-03T06:36:31.576Z,18.79
2022-09-03T06:38:58.638Z,19.19
2022-09-03T06:41:28.530Z,19.18
2022-09-03T06:44:04.975Z,19.23
2022-09-03T06:46:35.276Z,19.37
2022-09-03T06:49:02.369Z,19.60
2022-09-03T06:51:31.097Z,19.79
2022-09-03T06:54:06.290Z,19.84
2022-09-03T06:56:39.621Z,19.87
2022-09-03T06:59:12.575Z,20.18
2022-09-03T07:01:43.810Z,20.15
2022-09-03T07:04:12.891Z,19.97
2022-09-03T07:06:42.153Z,20.08
2022-09-03T07:09:10.460Z,20.12
2022-09-03T07:11:39.194Z,20.32
2022-09-03T07:14:05.864Z,20.47
2022-09-03T07:16:36.762Z,20.47
2022-09-03T07:19:04.745Z,20.56
2022-09-03T07:21:36.861Z,20.73
2022-09-03T07:24:05.091Z,20.19
2022-09-03T07:26:36.488Z,20.42
2022-09-03T07:29:04.112Z,20.76
2022-09-03T07:31:33.515Z,20.93
2022-09-03T07:34:04.041Z,20.97
2022-09-03T07:36:49.061Z,20.59
2022-09-03T07:39:16.617Z,20.46
2022-09-03T07:41:45.782Z,20.29
2022-09-03T07:44:15.442Z,20.50
2022-09-03T07:46:43.675Z,20.32
2022-09-03T07:49:11.019Z,20.22
2022-09-03T07:51:39.633Z,19.98
2022-09-03T07:54:11.574Z,19.78
2022-09-03T07:56:40.148Z,20.01
2022-09-03T07:59:07.368Z,20.30
2022-09-03T08:01:35.340Z,20.21
2022-09-03T08:04:02.877Z,20.14
2022-09-03T08:06:30.813Z,20.33
2022-09-03T08:09:05.345Z,20.49
2022-09-03T08:11:36.844Z,20.33
2022-09-03T08:14:08.713Z,20.35
2022-09-03T08:16:37.367Z,20.45
2022-09-03T08:19:05.075Z,20.66
2022-09-03T08:21:32.033Z,20.72
2022-09-03T08:24:04.671Z,20.67
2022-09-03T08:26:33.620Z,21.01
2022-09-03T08:29:00.907Z,21.24
2022-09-03T08:31:29.253Z,21.49
2022-09-03T08:33:57.781Z,21.56
2022-09-03T08:36:26.968Z,21.52
2022-09-03T08:38:55.265Z,22.07
2022-09-03T08:41:31.845Z,22.34
2022-09-03T08:44:29.230Z,23.47
2022-09-03T08:47:01.641Z,24.40
2022-09-03T08:49:42.335Z,25.15
2022-09-03T08:52:38.617Z,25.45
2022-09-03T08:55:24.062Z,25.97
2022-09-03T08:57:56.951Z,25.82
2022-09-03T09:00:23.548Z,26.67
2022-09-03T09:02:50.122Z,26.72
2022-09-03T09:05:24.820Z,26.96
2022-09-03T09:08:07.901Z,27.33
2022-09-03T09:10:46.209Z,27.31
2022-09-03T09:13:31.198Z,27.58
2022-09-03T09:16:18.814Z,27.53
2022-09-03T09:19:03.667Z,27.36
2022-09-03T09:21:34.015Z,27.92
2022-09-03T09:24:04.524Z,27.85
2022-09-03T09:26:31.457Z,27.89
2022-09-03T09:29:09.493Z,28.26
2022-09-03T09:31:38.664Z,28.23
2022-09-03T09:34:07.772Z,27.58
2022-09-03T09:36:52.305Z,27.92
2022-09-03T09:39:19.414Z,28.39
2022-09-03T09:41:59.374Z,28.37
2022-09-03T09:44:27.045Z,28.74
2022-09-03T09:47:13.025Z,28.35
2022-09-03T09:49:59.778Z,28.29
2022-09-03T09:52:30.257Z,28.67
2022-09-03T09:55:26.680Z,28.91
2022-09-03T09:58:14.501Z,29.35
2022-09-03T10:00:43.023Z,29.66
2022-09-03T10:03:13.744Z,29.18
2022-09-03T10:05:40.963Z,29.93
2022-09-03T10:08:20.216Z,29.84
2022-09-03T10:10:49.807Z,30.17
2022-09-03T10:13:25.124Z,30.57
2022-09-03T10:15:58.587Z,30.48
2022-09-03T10:18:43.958Z,30.62
2022-09-03T10:21:15.572Z,30.45
2022-09-03T10:23:48.060Z,30.34
2022-09-03T10:26:19.268Z,29.82
2022-09-03T10:28:50.640Z,30.44
2022-09-03T10:32:07.582Z,30.39
2022-09-03T10:34:37.363Z,30.45
2022-09-03T10:37:21.935Z,30.42
2022-09-03T10:40:10.095Z,30.68
2022-09-03T10:42:48.788Z,30.83
2022-09-03T10:46:00.086Z,31.92
2022-09-03T10:48:39.147Z,32.60
2022-09-03T10:51:06.834Z,32.88
2022-09-03T10:54:01.214Z,32.52
2022-09-03T10:56:58.790Z,33.28
2022-09-03T10:59:51.388Z,33.62
2022-09-03T11:02:48.446Z,33.21
2022-09-03T11:05:25.124Z,33.72
2022-09-03T11:08:06.996Z,33.99
2022-09-03T11:10:35.349Z,33.56
2022-09-03T11:13:01.850Z,33.45
2022-09-03T11:15:34.656Z,33.03
2022-09-03T11:18:04.370Z,32.61
2022-09-03T11:20:32.291Z,33.15
2022-09-03T11:23:06.005Z,33.52
2022-09-03T11:25:41.305Z,33.80
2022-09-03T11:28:26.292Z,34.45
2022-09-03T11:31:06.973Z,34.06
2022-09-03T11:33:41.607Z,34.27
2022-09-03T11:36:08.228Z,34.41
2022-09-03T11:38:35.682Z,34.23
2022-09-03T11:41:15.858Z,33.90
2022-09-03T11:43:44.070Z,33.73
2022-09-03T11:46:30.534Z,34.09
2022-09-03T11:49:13.743Z,34.43
2022-09-03T11:51:42.028Z,34.06
2022-09-03T11:54:18.090Z,34.12
2022-09-03T11:56:44.654Z,34.13
2022-09-03T11:59:14.042Z,34.70
2022-09-03T12:01:57.335Z,34.37
2022-09-03T12:04:33.697Z,34.25
2022-09-03T12:07:20.526Z,33.97
2022-09-03T12:10:19.125Z,34.25
2022-09-03T12:12:46.247Z,34.54
2022-09-03T12:15:46.116Z,34.25
2022-09-03T12:18:34.570Z,34.55
2022-09-03T12:21:02.634Z,34.44
2022-09-03T12:23:44.697Z,34.50
2022-09-03T12:26:18.684Z,34.23
2022-09-03T12:28:50.556Z,34.52
2022-09-03T12:31:44.170Z,34.58
2022-09-03T12:34:16.878Z,34.39
2022-09-03T12:36:46.534Z,34.37
2022-09-03T12:39:13.449Z,34.57
2022-09-03T12:42:19.666Z,34.70
2022-09-03T12:44:46.241Z,34.19
2022-09-03T12:50:13.262Z,34.39
2022-09-03T12:52:45.124Z,34.44
2022-09-03T12:55:27.463Z,34.33
2022-09-03T12:58:12.882Z,34.27
2022-09-03T13:00:47.272Z,34.67
2022-09-03T13:03:23.514Z,34.24
2022-09-03T13:06:04.110Z,34.44
2022-09-03T13:08:37.864Z,34.47
2022-09-03T13:11:06.118Z,34.31
2022-09-03T13:13:37.082Z,34.30
2022-09-03T13:16:13.460Z,34.23
2022-09-03T13:19:17.432Z,34.27
2022-09-03T13:22:11.739Z,34.47
2022-09-03T13:24:59.997Z,34.27
2022-09-03T13:27:36.161Z,34.24
2022-09-03T13:30:13.299Z,33.99
2022-09-03T13:33:01.122Z,33.83
2022-09-03T13:35:37.591Z,33.73
2022-09-03T13:38:16.532Z,33.75
2022-09-03T13:41:00.110Z,33.66
2022-09-03T13:43:26.741Z,33.76
2022-09-03T13:46:00.084Z,33.73
2022-09-03T13:48:53.437Z,33.61
2022-09-03T13:51:26.423Z,33.75
2022-09-03T13:54:05.124Z,33.65
2022-09-03T13:56:47.620Z,33.72
2022-09-03T13:59:31.444Z,33.62
2022-09-03T14:02:17.056Z,33.68
2022-09-03T14:05:10.941Z,33.75
2022-09-03T14:07:57.169Z,34.00
2022-09-03T14:10:45.885Z,33.89
2022-09-03T14:13:59.461Z,33.89
2022-09-03T14:16:26.124Z,33.86
2022-09-03T14:18:57.391Z,33.76
2022-09-03T14:21:33.614Z,33.55
2022-09-03T14:24:10.391Z,33.45
2022-09-03T14:26:39.982Z,33.36
2022-09-03T14:29:12.716Z,33.42
2022-09-03T14:31:52.093Z,33.66
2022-09-03T14:34:54.355Z,33.44
2022-09-03T14:38:21.491Z,33.48
2022-09-03T14:41:06.227Z,33.41
2022-09-03T14:44:00.049Z,33.19
2022-09-03T14:46:50.730Z,33.04
2022-09-03T14:49:25.507Z,33.24
2022-09-03T14:52:17.170Z,32.90
2022-09-03T14:54:52.749Z,32.69
2022-09-03T14:57:54.311Z,32.55
2022-09-03T15:00:36.285Z,32.66
2022-09-03T15:03:27.514Z,32.49
2022-09-03T15:06:39.066Z,32.36
2022-09-03T15:09:42.453Z,32.57
2022-09-03T15:12:23.026Z,32.29
2022-09-03T15:14:54.554Z,32.18
2022-09-03T15:17:40.007Z,31.94
2022-09-03T15:20:23.487Z,31.81
2022-09-03T15:22:55.686Z,31.78
2022-09-03T15:25:49.799Z,31.68
2022-09-03T15:28:43.091Z,31.51
2022-09-03T15:31:15.878Z,31.55
2022-09-03T15:34:03.473Z,31.50
2022-09-03T15:36:40.951Z,31.29
2022-09-03T15:39:21.116Z,31.16
2022-09-03T15:41:58.958Z,31.02
2022-09-03T15:44:35.777Z,30.86
2022-09-03T15:47:14.238Z,30.80
2022-09-03T15:49:44.610Z,30.90
2022-09-03T15:52:11.637Z,30.72
2022-09-03T15:54:55.576Z,30.65
2022-09-03T15:57:29.296Z,30.54
2022-09-03T16:00:16.272Z,30.41
2022-09-03T16:02:59.008Z,30.25
2022-09-03T16:05:44.645Z,30.24
2022-09-03T16:08:20.192Z,30.24
2022-09-03T16:11:02.806Z,29.99
2022-09-03T16:13:53.611Z,29.93
2022-09-03T16:16:22.190Z,29.73
2022-09-03T16:18:55.263Z,29.59
2022-09-03T16:21:30.865Z,29.51
2022-09-03T16:24:11.628Z,29.33
2022-09-03T16:27:14.730Z,29.21
2022-09-03T16:29:41.725Z,29.15
2022-09-03T16:32:17.426Z,29.05
2022-09-03T16:35:11.411Z,29.04
2022-09-03T16:37:50.932Z,28.95
2022-09-03T16:40:26.962Z,28.77
2022-09-03T16:43:39.652Z,28.68
2022-09-03T16:46:24.798Z,28.60
2022-09-03T16:48:54.377Z,28.55
2022-09-03T16:51:33.774Z,28.47
2022-09-03T16:54:30.146Z,28.46
2022-09-03T16:57:18.114Z,28.42
2022-09-03T17:00:20.783Z,28.32
2022-09-03T17:03:26.812Z,28.29
2022-09-03T17:06:20.494Z,28.25
2022-09-03T17:08:47.071Z,28.16
2022-09-03T17:11:32.076Z,28.15
2022-09-03T17:14:24.695Z,28.09
2022-09-03T17:17:09.642Z,28.06
2022-09-03T17:19:54.192Z,27.98
2022-09-03T17:22:55.087Z,27.94
2022-09-03T17:25:48.423Z,27.87
2022-09-03T17:28:31.508Z,27.77
2022-09-03T17:31:04.126Z,27.71
2022-09-03T17:33:35.768Z,27.64
2022-09-03T17:36:13.532Z,27.61
2022-09-03T17:39:12.525Z,27.53
2022-09-03T17:42:06.390Z,27.47
2022-09-03T17:44:55.267Z,27.43
2022-09-03T17:47:43.653Z,27.37
2022-09-03T17:50:50.275Z,27.27
2022-09-03T17:53:26.952Z,27.22
2022-09-03T17:55:56.322Z,27.13
2022-09-03T17:58:30.434Z,27.09
2022-09-03T18:01:15.219Z,26.99
2022-09-03T18:04:05.337Z,26.93
2022-09-03T18:06:43.754Z,26.88
2022-09-03T18:09:16.399Z,26.81
2022-09-03T18:12:05.920Z,26.75
2022-09-03T18:14:49.182Z,26.68
2022-09-03T18:17:35.460Z,26.62
2022-09-03T18:20:32.668Z,26.55
2022-09-03T18:23:37.256Z,26.48
2022-09-03T18:26:27.078Z,26.41
2022-09-03T18:29:41.381Z,26.31
2022-09-03T18:32:26.652Z,26.23
2022-09-03T18:35:11.856Z,26.17
2022-09-03T18:37:57.505Z,26.14
2022-09-03T18:40:58.397Z,26.07
2022-09-03T18:44:03.709Z,26.00
2022-09-03T18:48:02.934Z,25.92
2022-09-03T18:50:30.718Z,25.86
2022-09-03T18:53:21.526Z,25.82
2022-09-03T18:56:25.509Z,25.77
2022-09-03T18:59:24.400Z,25.73
2022-09-03T19:02:41.848Z,25.73
2022-09-03T19:05:37.508Z,25.70
2022-09-03T19:08:38.446Z,25.69
2022-09-03T19:11:36.157Z,25.67
2022-09-03T19:14:29.636Z,25.65
2022-09-03T19:17:29.389Z,25.59
2022-09-03T19:20:40.564Z,25.58
2022-09-03T19:23:25.563Z,25.53
2022-09-03T19:26:16.755Z,25.41
2022-09-03T19:29:05.718Z,25.37
2022-09-03T19:32:05.888Z,25.24
2022-09-03T19:35:27.330Z,25.12
2022-09-03T19:38:42.411Z,25.00
2022-09-03T19:41:30.746Z,24.88
2022-09-03T19:44:32.366Z,24.74
2022-09-03T19:47:21.284Z,24.66
2022-09-03T19:50:31.725Z,24.49
2022-09-03T19:53:23.982Z,24.59
2022-09-03T19:56:14.345Z,24.32
2022-09-03T19:59:08.802Z,24.11
2022-09-03T20:01:55.809Z,24.04
2022-09-03T20:04:53.283Z,23.98
2022-09-03T20:07:39.752Z,23.95
2022-09-03T20:10:25.748Z,23.89
2022-09-03T20:13:08.878Z,23.85
2022-09-03T20:16:14.115Z,23.81
2022-09-03T20:18:48.036Z,23.75
2022-09-03T20:21:20.756Z,23.73
2022-09-03T20:24:11.194Z,23.70
2022-09-03T20:26:53.716Z,23.64
2022-09-03T20:29:53.033Z,23.55
2022-09-03T20:32:25.817Z,23.55
2022-09-03T20:34:52.395Z,23.47
2022-09-03T20:37:29.734Z,23.42
2022-09-03T20:40:14.018Z,23.39
2022-09-03T20:42:52.738Z,23.36
2022-09-03T20:45:44.478Z,23.30
2022-09-03T20:48:28.374Z,23.22
2022-09-03T20:51:01.130Z,23.15
2022-09-03T20:53:49.235Z,23.03
2022-09-03T20:56:51.208Z,22.98
2022-09-03T20:59:53.366Z,22.94
2022-09-03T21:02:41.804Z,22.92
2022-09-03T21:05:34.169Z,22.94
2022-09-03T21:08:27.296Z,22.88
2022-09-03T21:10:58.865Z,22.84
2022-09-03T21:13:40.614Z,22.82
2022-09-03T21:16:20.263Z,22.76
2022-09-03T21:19:15.318Z,22.76
2022-09-03T21:21:54.062Z,22.75
2022-09-03T21:24:31.373Z,22.71
2022-09-03T21:27:03.390Z,22.68
2022-09-03T21:29:39.626Z,22.67
2022-09-03T21:32:10.912Z,22.62
2022-09-03T21:34:41.592Z,22.59
2022-09-03T21:37:11.663Z,22.55
2022-09-03T21:39:51.807Z,22.52
2022-09-03T21:42:29.688Z,22.54
2022-09-03T21:45:22.110Z,22.49
2022-09-03T21:47:53.770Z,22.47
2022-09-03T21:50:24.321Z,22.43
2022-09-03T21:53:03.872Z,22.36
2022-09-03T21:55:49.470Z,22.34
2022-09-03T21:58:32.131Z,22.28
2022-09-03T22:01:07.048Z,22.30
2022-09-03T22:03:34.047Z,22.27
2022-09-03T22:06:14.233Z,22.22
2022-09-03T22:09:07.914Z,22.16
2022-09-03T22:11:51.439Z,22.13
2022-09-03T22:14:20.962Z,22.09
2022-09-03T22:16:56.597Z,22.04
2022-09-03T22:19:23.368Z,22.04
2022-09-03T22:22:01.726Z,21.99
2022-09-03T22:24:48.002Z,21.96
2022-09-03T22:27:26.377Z,21.92
2022-09-03T22:30:13.654Z,21.89
2022-09-03T22:33:10.956Z,21.86
2022-09-03T22:36:01.912Z,21.82
2022-09-03T22:38:52.828Z,21.78
2022-09-03T22:41:38.198Z,21.76
2022-09-03T22:44:24.978Z,21.69
2022-09-03T22:47:11.411Z,21.59
2022-09-03T22:49:56.552Z,21.49
2022-09-03T22:52:36.865Z,21.49
2022-09-03T22:55:18.490Z,21.49
2022-09-03T22:58:06.783Z,21.48
2022-09-03T23:00:47.134Z,21.42
2022-09-03T23:03:24.386Z,21.39
2022-09-03T23:05:56.684Z,21.37
2022-09-03T23:08:29.920Z,21.25
2022-09-03T23:11:03.167Z,21.24
2022-09-03T23:13:42.201Z,21.24
2022-09-03T23:16:39.174Z,21.21
2022-09-03T23:21:51.006Z,21.20
2022-09-03T23:24:26.871Z,21.14
2022-09-03T23:26:53.915Z,21.14
2022-09-03T23:29:36.010Z,21.11
2022-09-03T23:32:05.618Z,21.14
2022-09-03T23:34:33.100Z,21.10
2022-09-03T23:37:33.808Z,21.08
2022-09-03T23:40:10.358Z,21.07
2022-09-03T23:42:55.762Z,21.04
2022-09-03T23:45:44.067Z,21.00
2022-09-03T23:48:58.115Z,20.98
2022-09-03T23:52:02.380Z,20.95
2022-09-03T23:54:34.885Z,20.93
2022-09-03T23:57:24.559Z,20.95
